sensor_id;sensor_type;location;lat;lon;timestamp;P1;durP1;ratioP1;P2;durP2;ratioP2
24873;SDS011;12945;42.648;23.370;2023-07-20T00:01:12;14.73;;;2.90;;
24873;SDS011;12945;42.648;23.370;2023-07-20T00:03:38;13.07;;;3.53;;
24873;SDS011;12945;42.648;23.370;2023-07-20T00:06:03;13.52;;;3.45;;
24873;SDS011;12945;42.648;23.370;2023-07-20T00:08:29;12.05;;;3.45;;
24873;SDS011;12945;42.648;23.370;2023-07-20T00:10:54;10.88;;;3.47;;
24873;SDS011;12945;42.648;23.370;2023-07-20T00:13:20;19.10;;;4.28;;
24873;SDS011;12945;42.648;23.370;2023-07-20T00:15:46;12.23;;;3.47;;
24873;SDS011;12945;42.648;23.370;2023-07-20T00:18:11;10.48;;;3.28;;
24873;SDS011;12945;42.648;23.370;2023-07-20T00:20:36;8.73;;;3.17;;
24873;SDS011;12945;42.648;23.370;2023-07-20T00:23:02;12.00;;;3.33;;
24873;SDS011;12945;42.648;23.370;2023-07-20T00:25:27;12.77;;;4.05;;
24873;SDS011;12945;42.648;23.370;2023-07-20T00:27:52;9.00;;;3.45;;
24873;SDS011;12945;42.648;23.370;2023-07-20T00:30:18;10.32;;;4.05;;
24873;SDS011;12945;42.648;23.370;2023-07-20T00:32:43;11.32;;;3.50;;
24873;SDS011;12945;42.648;23.370;2023-07-20T00:35:09;11.13;;;3.63;;
24873;SDS011;12945;42.648;23.370;2023-07-20T00:37:34;15.48;;;3.78;;
24873;SDS011;12945;42.648;23.370;2023-07-20T00:40:00;12.85;;;4.13;;
24873;SDS011;12945;42.648;23.370;2023-07-20T00:42:25;10.65;;;3.47;;
24873;SDS011;12945;42.648;23.370;2023-07-20T00:44:50;11.45;;;4.00;;
24873;SDS011;12945;42.648;23.370;2023-07-20T00:47:16;15.25;;;3.65;;
24873;SDS011;12945;42.648;23.370;2023-07-20T00:49:41;12.98;;;3.60;;
24873;SDS011;12945;42.648;23.370;2023-07-20T00:52:07;15.27;;;3.47;;
24873;SDS011;12945;42.648;23.370;2023-07-20T00:54:33;10.75;;;3.80;;
24873;SDS011;12945;42.648;23.370;2023-07-20T00:56:58;14.05;;;3.67;;
24873;SDS011;12945;42.648;23.370;2023-07-20T00:59:25;11.25;;;3.67;;
24873;SDS011;12945;42.648;23.370;2023-07-20T01:01:51;12.07;;;3.28;;
24873;SDS011;12945;42.648;23.370;2023-07-20T01:04:16;16.02;;;4.22;;
24873;SDS011;12945;42.648;23.370;2023-07-20T01:06:45;17.15;;;3.90;;
24873;SDS011;12945;42.648;23.370;2023-07-20T01:09:14;13.95;;;3.40;;
24873;SDS011;12945;42.648;23.370;2023-07-20T01:11:56;9.82;;;3.25;;
24873;SDS011;12945;42.648;23.370;2023-07-20T01:14:23;8.85;;;3.42;;
24873;SDS011;12945;42.648;23.370;2023-07-20T01:16:49;12.57;;;2.85;;
24873;SDS011;12945;42.648;23.370;2023-07-20T01:19:17;14.05;;;3.40;;
24873;SDS011;12945;42.648;23.370;2023-07-20T01:22:31;9.43;;;3.40;;
24873;SDS011;12945;42.648;23.370;2023-07-20T01:30:10;10.60;;;3.30;;
24873;SDS011;12945;42.648;23.370;2023-07-20T01:32:39;14.63;;;3.40;;
24873;SDS011;12945;42.648;23.370;2023-07-20T01:35:05;11.00;;;3.38;;
24873;SDS011;12945;42.648;23.370;2023-07-20T01:37:31;9.73;;;3.17;;
24873;SDS011;12945;42.648;23.370;2023-07-20T01:39:57;13.48;;;3.58;;
24873;SDS011;12945;42.648;23.370;2023-07-20T01:42:23;11.57;;;3.53;;
24873;SDS011;12945;42.648;23.370;2023-07-20T01:44:52;15.15;;;3.15;;
24873;SDS011;12945;42.648;23.370;2023-07-20T01:47:18;9.57;;;3.20;;
24873;SDS011;12945;42.648;23.370;2023-07-20T01:49:43;15.20;;;2.97;;
24873;SDS011;12945;42.648;23.370;2023-07-20T01:52:09;10.95;;;3.33;;
24873;SDS011;12945;42.648;23.370;2023-07-20T01:54:34;10.02;;;3.03;;
24873;SDS011;12945;42.648;23.370;2023-07-20T01:56:59;10.73;;;3.55;;
24873;SDS011;12945;42.648;23.370;2023-07-20T01:59:25;10.93;;;3.15;;
24873;SDS011;12945;42.648;23.370;2023-07-20T02:01:50;11.27;;;3.25;;
24873;SDS011;12945;42.648;23.370;2023-07-20T02:04:15;14.07;;;3.22;;
24873;SDS011;12945;42.648;23.370;2023-07-20T02:06:41;18.30;;;3.30;;
24873;SDS011;12945;42.648;23.370;2023-07-20T02:09:07;11.73;;;3.13;;
24873;SDS011;12945;42.648;23.370;2023-07-20T02:11:32;18.15;;;3.55;;
24873;SDS011;12945;42.648;23.370;2023-07-20T02:13:57;10.73;;;3.05;;
24873;SDS011;12945;42.648;23.370;2023-07-20T02:16:23;12.32;;;3.42;;
24873;SDS011;12945;42.648;23.370;2023-07-20T02:18:49;14.02;;;3.13;;
24873;SDS011;12945;42.648;23.370;2023-07-20T02:21:14;8.88;;;2.88;;
24873;SDS011;12945;42.648;23.370;2023-07-20T02:23:40;9.52;;;3.53;;
24873;SDS011;12945;42.648;23.370;2023-07-20T02:26:05;11.65;;;3.03;;
24873;SDS011;12945;42.648;23.370;2023-07-20T02:28:30;11.40;;;3.45;;
24873;SDS011;12945;42.648;23.370;2023-07-20T02:30:56;8.73;;;2.95;;
24873;SDS011;12945;42.648;23.370;2023-07-20T02:33:21;11.33;;;3.77;;
24873;SDS011;12945;42.648;23.370;2023-07-20T02:35:46;9.77;;;3.33;;
24873;SDS011;12945;42.648;23.370;2023-07-20T02:38:12;15.00;;;3.08;;
24873;SDS011;12945;42.648;23.370;2023-07-20T02:40:37;9.02;;;3.03;;
24873;SDS011;12945;42.648;23.370;2023-07-20T02:43:03;12.13;;;3.10;;
24873;SDS011;12945;42.648;23.370;2023-07-20T02:45:29;13.02;;;3.25;;
24873;SDS011;12945;42.648;23.370;2023-07-20T02:47:54;13.95;;;3.45;;
24873;SDS011;12945;42.648;23.370;2023-07-20T02:50:19;12.52;;;4.13;;
24873;SDS011;12945;42.648;23.370;2023-07-20T02:52:45;15.98;;;3.78;;
24873;SDS011;12945;42.648;23.370;2023-07-20T02:55:10;8.88;;;3.72;;
24873;SDS011;12945;42.648;23.370;2023-07-20T02:57:36;11.77;;;3.80;;
24873;SDS011;12945;42.648;23.370;2023-07-20T03:00:02;19.73;;;3.80;;
24873;SDS011;12945;42.648;23.370;2023-07-20T03:02:29;13.70;;;3.30;;
24873;SDS011;12945;42.648;23.370;2023-07-20T03:04:54;13.68;;;4.15;;
24873;SDS011;12945;42.648;23.370;2023-07-20T03:07:22;15.93;;;3.80;;
24873;SDS011;12945;42.648;23.370;2023-07-20T03:09:47;13.65;;;3.92;;
24873;SDS011;12945;42.648;23.370;2023-07-20T03:12:13;8.88;;;3.75;;
24873;SDS011;12945;42.648;23.370;2023-07-20T03:14:38;10.35;;;3.58;;
24873;SDS011;12945;42.648;23.370;2023-07-20T03:17:03;18.08;;;4.03;;
24873;SDS011;12945;42.648;23.370;2023-07-20T03:19:29;13.23;;;4.43;;
24873;SDS011;12945;42.648;23.370;2023-07-20T03:21:55;12.65;;;3.75;;
24873;SDS011;12945;42.648;23.370;2023-07-20T03:24:20;12.13;;;3.50;;
24873;SDS011;12945;42.648;23.370;2023-07-20T03:26:46;15.07;;;3.55;;
24873;SDS011;12945;42.648;23.370;2023-07-20T03:29:11;10.98;;;3.90;;
24873;SDS011;12945;42.648;23.370;2023-07-20T03:31:36;15.63;;;4.68;;
24873;SDS011;12945;42.648;23.370;2023-07-20T03:34:02;13.10;;;4.15;;
24873;SDS011;12945;42.648;23.370;2023-07-20T03:36:27;15.65;;;3.97;;
24873;SDS011;12945;42.648;23.370;2023-07-20T03:38:52;16.42;;;4.50;;
24873;SDS011;12945;42.648;23.370;2023-07-20T03:41:18;14.52;;;3.97;;
24873;SDS011;12945;42.648;23.370;2023-07-20T03:43:45;15.10;;;4.68;;
24873;SDS011;12945;42.648;23.370;2023-07-20T03:46:10;14.63;;;4.28;;
24873;SDS011;12945;42.648;23.370;2023-07-20T03:48:37;11.32;;;3.85;;
24873;SDS011;12945;42.648;23.370;2023-07-20T03:51:02;13.50;;;4.03;;
24873;SDS011;12945;42.648;23.370;2023-07-20T03:53:28;11.95;;;4.13;;
24873;SDS011;12945;42.648;23.370;2023-07-20T03:55:53;15.77;;;4.20;;
24873;SDS011;12945;42.648;23.370;2023-07-20T03:58:19;25.23;;;5.00;;
24873;SDS011;12945;42.648;23.370;2023-07-20T04:00:49;15.40;;;4.68;;
24873;SDS011;12945;42.648;23.370;2023-07-20T04:05:41;19.38;;;4.95;;
24873;SDS011;12945;42.648;23.370;2023-07-20T04:08:06;19.02;;;4.50;;
24873;SDS011;12945;42.648;23.370;2023-07-20T04:10:32;16.05;;;5.00;;
24873;SDS011;12945;42.648;23.370;2023-07-20T04:12:57;21.55;;;4.28;;
24873;SDS011;12945;42.648;23.370;2023-07-20T04:15:23;14.00;;;3.92;;
24873;SDS011;12945;42.648;23.370;2023-07-20T04:17:48;12.52;;;4.57;;
24873;SDS011;12945;42.648;23.370;2023-07-20T04:20:13;14.85;;;4.60;;
24873;SDS011;12945;42.648;23.370;2023-07-20T04:22:39;12.98;;;4.25;;
24873;SDS011;12945;42.648;23.370;2023-07-20T04:25:04;15.35;;;4.60;;
24873;SDS011;12945;42.648;23.370;2023-07-20T04:27:29;15.30;;;4.05;;
24873;SDS011;12945;42.648;23.370;2023-07-20T04:29:55;19.25;;;4.80;;
24873;SDS011;12945;42.648;23.370;2023-07-20T04:32:20;17.45;;;5.18;;
24873;SDS011;12945;42.648;23.370;2023-07-20T04:34:46;14.15;;;4.93;;
24873;SDS011;12945;42.648;23.370;2023-07-20T04:37:11;14.23;;;4.35;;
24873;SDS011;12945;42.648;23.370;2023-07-20T04:39:36;14.43;;;4.53;;
24873;SDS011;12945;42.648;23.370;2023-07-20T04:42:02;20.63;;;5.07;;
24873;SDS011;12945;42.648;23.370;2023-07-20T04:44:27;16.30;;;4.63;;
24873;SDS011;12945;42.648;23.370;2023-07-20T04:46:52;16.92;;;4.82;;
24873;SDS011;12945;42.648;23.370;2023-07-20T04:49:18;15.02;;;5.82;;
24873;SDS011;12945;42.648;23.370;2023-07-20T04:51:43;25.15;;;6.03;;
24873;SDS011;12945;42.648;23.370;2023-07-20T04:54:08;15.02;;;5.88;;
24873;SDS011;12945;42.648;23.370;2023-07-20T04:56:33;16.17;;;5.20;;
24873;SDS011;12945;42.648;23.370;2023-07-20T04:58:59;16.23;;;5.50;;
24873;SDS011;12945;42.648;23.370;2023-07-20T05:01:24;17.17;;;5.45;;
24873;SDS011;12945;42.648;23.370;2023-07-20T05:03:51;12.90;;;5.20;;
24873;SDS011;12945;42.648;23.370;2023-07-20T05:06:17;14.82;;;5.35;;
24873;SDS011;12945;42.648;23.370;2023-07-20T05:08:42;15.20;;;5.20;;
24873;SDS011;12945;42.648;23.370;2023-07-20T05:11:07;14.63;;;5.40;;
24873;SDS011;12945;42.648;23.370;2023-07-20T05:13:33;19.92;;;5.57;;
24873;SDS011;12945;42.648;23.370;2023-07-20T05:15:59;16.13;;;5.15;;
24873;SDS011;12945;42.648;23.370;2023-07-20T05:18:24;10.48;;;5.05;;
24873;SDS011;12945;42.648;23.370;2023-07-20T05:20:50;10.63;;;4.25;;
24873;SDS011;12945;42.648;23.370;2023-07-20T05:23:16;14.68;;;5.00;;
24873;SDS011;12945;42.648;23.370;2023-07-20T05:25:42;15.75;;;4.55;;
24873;SDS011;12945;42.648;23.370;2023-07-20T05:28:07;14.88;;;4.85;;
24873;SDS011;12945;42.648;23.370;2023-07-20T05:30:33;17.17;;;4.82;;
24873;SDS011;12945;42.648;23.370;2023-07-20T05:32:58;9.70;;;5.10;;
24873;SDS011;12945;42.648;23.370;2023-07-20T05:35:23;13.35;;;4.70;;
24873;SDS011;12945;42.648;23.370;2023-07-20T05:37:49;14.40;;;3.97;;
24873;SDS011;12945;42.648;23.370;2023-07-20T05:40:14;11.88;;;4.07;;
24873;SDS011;12945;42.648;23.370;2023-07-20T05:42:43;9.75;;;3.78;;
24873;SDS011;12945;42.648;23.370;2023-07-20T05:45:09;13.93;;;4.82;;
24873;SDS011;12945;42.648;23.370;2023-07-20T05:47:34;13.50;;;4.10;;
24873;SDS011;12945;42.648;23.370;2023-07-20T05:50:00;12.95;;;4.40;;
24873;SDS011;12945;42.648;23.370;2023-07-20T05:52:25;16.33;;;4.63;;
24873;SDS011;12945;42.648;23.370;2023-07-20T05:54:50;12.60;;;4.65;;
24873;SDS011;12945;42.648;23.370;2023-07-20T05:57:16;12.98;;;4.20;;
24873;SDS011;12945;42.648;23.370;2023-07-20T05:59:41;10.13;;;4.20;;
24873;SDS011;12945;42.648;23.370;2023-07-20T06:02:09;12.38;;;4.38;;
24873;SDS011;12945;42.648;23.370;2023-07-20T06:04:34;14.85;;;4.43;;
24873;SDS011;12945;42.648;23.370;2023-07-20T06:07:00;13.43;;;4.65;;
24873;SDS011;12945;42.648;23.370;2023-07-20T06:09:25;12.43;;;4.78;;
24873;SDS011;12945;42.648;23.370;2023-07-20T06:11:52;11.10;;;4.63;;
24873;SDS011;12945;42.648;23.370;2023-07-20T06:14:17;13.75;;;4.25;;
24873;SDS011;12945;42.648;23.370;2023-07-20T06:16:43;20.17;;;4.72;;
24873;SDS011;12945;42.648;23.370;2023-07-20T06:19:08;16.17;;;4.65;;
24873;SDS011;12945;42.648;23.370;2023-07-20T06:21:36;14.43;;;5.78;;
24873;SDS011;12945;42.648;23.370;2023-07-20T06:24:01;16.60;;;4.93;;
24873;SDS011;12945;42.648;23.370;2023-07-20T06:26:27;14.63;;;4.65;;
24873;SDS011;12945;42.648;23.370;2023-07-20T06:28:53;15.63;;;4.38;;
24873;SDS011;12945;42.648;23.370;2023-07-20T06:31:19;16.52;;;4.43;;
24873;SDS011;12945;42.648;23.370;2023-07-20T06:33:44;12.80;;;4.20;;
24873;SDS011;12945;42.648;23.370;2023-07-20T06:36:09;11.55;;;4.35;;
24873;SDS011;12945;42.648;23.370;2023-07-20T06:38:35;14.45;;;5.22;;
24873;SDS011;12945;42.648;23.370;2023-07-20T06:41:00;18.75;;;4.47;;
24873;SDS011;12945;42.648;23.370;2023-07-20T06:43:26;20.00;;;4.80;;
24873;SDS011;12945;42.648;23.370;2023-07-20T06:45:51;18.67;;;5.07;;
24873;SDS011;12945;42.648;23.370;2023-07-20T06:48:18;14.65;;;4.80;;
24873;SDS011;12945;42.648;23.370;2023-07-20T06:50:43;14.17;;;4.80;;
24873;SDS011;12945;42.648;23.370;2023-07-20T06:53:09;10.88;;;4.07;;
24873;SDS011;12945;42.648;23.370;2023-07-20T06:55:34;19.08;;;4.43;;
24873;SDS011;12945;42.648;23.370;2023-07-20T06:57:59;18.42;;;4.28;;
24873;SDS011;12945;42.648;23.370;2023-07-20T07:00:25;24.27;;;4.72;;
24873;SDS011;12945;42.648;23.370;2023-07-20T07:02:50;17.70;;;4.15;;
24873;SDS011;12945;42.648;23.370;2023-07-20T07:05:15;13.95;;;4.25;;
24873;SDS011;12945;42.648;23.370;2023-07-20T07:07:41;10.68;;;4.45;;
24873;SDS011;12945;42.648;23.370;2023-07-20T07:10:07;16.42;;;4.47;;
24873;SDS011;12945;42.648;23.370;2023-07-20T07:12:32;14.73;;;4.55;;
24873;SDS011;12945;42.648;23.370;2023-07-20T07:14:57;16.45;;;4.72;;
24873;SDS011;12945;42.648;23.370;2023-07-20T07:17:23;19.25;;;5.07;;
24873;SDS011;12945;42.648;23.370;2023-07-20T07:19:48;22.70;;;5.60;;
24873;SDS011;12945;42.648;23.370;2023-07-20T07:22:14;21.15;;;5.30;;
24873;SDS011;12945;42.648;23.370;2023-07-20T07:24:39;11.77;;;4.88;;
24873;SDS011;12945;42.648;23.370;2023-07-20T07:27:07;23.25;;;6.13;;
24873;SDS011;12945;42.648;23.370;2023-07-20T07:29:33;18.60;;;4.82;;
24873;SDS011;12945;42.648;23.370;2023-07-20T07:31:58;14.35;;;5.00;;
24873;SDS011;12945;42.648;23.370;2023-07-20T07:34:24;16.25;;;5.63;;
24873;SDS011;12945;42.648;23.370;2023-07-20T07:36:50;21.02;;;5.88;;
24873;SDS011;12945;42.648;23.370;2023-07-20T07:39:15;16.88;;;5.25;;
24873;SDS011;12945;42.648;23.370;2023-07-20T07:41:41;28.65;;;6.68;;
24873;SDS011;12945;42.648;23.370;2023-07-20T07:44:06;22.25;;;5.88;;
24873;SDS011;12945;42.648;23.370;2023-07-20T07:46:31;17.05;;;5.45;;
24873;SDS011;12945;42.648;23.370;2023-07-20T07:48:57;27.00;;;5.28;;
24873;SDS011;12945;42.648;23.370;2023-07-20T07:51:22;15.00;;;4.95;;
24873;SDS011;12945;42.648;23.370;2023-07-20T07:53:47;17.10;;;5.15;;
24873;SDS011;12945;42.648;23.370;2023-07-20T07:56:14;19.23;;;5.88;;
24873;SDS011;12945;42.648;23.370;2023-07-20T07:58:39;16.10;;;5.18;;
24873;SDS011;12945;42.648;23.370;2023-07-20T08:01:05;18.10;;;5.18;;
24873;SDS011;12945;42.648;23.370;2023-07-20T08:03:30;18.75;;;5.53;;
24873;SDS011;12945;42.648;23.370;2023-07-20T08:05:56;18.70;;;5.97;;
24873;SDS011;12945;42.648;23.370;2023-07-20T08:08:22;14.18;;;5.00;;
24873;SDS011;12945;42.648;23.370;2023-07-20T08:10:48;18.52;;;5.07;;
24873;SDS011;12945;42.648;23.370;2023-07-20T08:13:13;16.35;;;5.20;;
24873;SDS011;12945;42.648;23.370;2023-07-20T08:15:39;17.58;;;4.97;;
24873;SDS011;12945;42.648;23.370;2023-07-20T08:18:04;23.17;;;5.85;;
24873;SDS011;12945;42.648;23.370;2023-07-20T08:20:29;18.80;;;5.65;;
24873;SDS011;12945;42.648;23.370;2023-07-20T08:22:57;25.60;;;6.03;;
24873;SDS011;12945;42.648;23.370;2023-07-20T08:25:23;15.10;;;5.13;;
24873;SDS011;12945;42.648;23.370;2023-07-20T08:27:48;12.40;;;4.43;;
24873;SDS011;12945;42.648;23.370;2023-07-20T08:30:14;17.50;;;4.72;;
24873;SDS011;12945;42.648;23.370;2023-07-20T08:32:39;14.15;;;4.57;;
24873;SDS011;12945;42.648;23.370;2023-07-20T08:35:05;20.27;;;4.25;;
24873;SDS011;12945;42.648;23.370;2023-07-20T08:37:30;15.35;;;4.22;;
24873;SDS011;12945;42.648;23.370;2023-07-20T08:39:57;24.93;;;5.30;;
24873;SDS011;12945;42.648;23.370;2023-07-20T08:42:22;13.93;;;4.13;;
24873;SDS011;12945;42.648;23.370;2023-07-20T08:44:48;11.63;;;4.45;;
24873;SDS011;12945;42.648;23.370;2023-07-20T08:47:13;11.00;;;3.83;;
24873;SDS011;12945;42.648;23.370;2023-07-20T08:49:40;10.38;;;3.40;;
24873;SDS011;12945;42.648;23.370;2023-07-20T08:52:06;9.23;;;3.83;;
24873;SDS011;12945;42.648;23.370;2023-07-20T08:54:31;21.15;;;4.35;;
24873;SDS011;12945;42.648;23.370;2023-07-20T08:57:03;10.68;;;3.97;;
24873;SDS011;12945;42.648;23.370;2023-07-20T08:59:28;18.70;;;4.18;;
24873;SDS011;12945;42.648;23.370;2023-07-20T09:01:55;14.43;;;4.10;;
24873;SDS011;12945;42.648;23.370;2023-07-20T09:04:21;12.82;;;3.70;;
24873;SDS011;12945;42.648;23.370;2023-07-20T09:06:48;15.85;;;3.30;;
24873;SDS011;12945;42.648;23.370;2023-07-20T09:09:14;11.70;;;3.50;;
24873;SDS011;12945;42.648;23.370;2023-07-20T09:11:40;16.38;;;3.35;;
24873;SDS011;12945;42.648;23.370;2023-07-20T09:14:05;17.27;;;3.92;;
24873;SDS011;12945;42.648;23.370;2023-07-20T09:16:31;14.90;;;3.65;;
24873;SDS011;12945;42.648;23.370;2023-07-20T09:18:59;14.10;;;3.63;;
24873;SDS011;12945;42.648;23.370;2023-07-20T09:21:28;10.45;;;3.30;;
24873;SDS011;12945;42.648;23.370;2023-07-20T09:23:54;20.15;;;4.18;;
24873;SDS011;12945;42.648;23.370;2023-07-20T09:26:21;12.02;;;3.20;;
24873;SDS011;12945;42.648;23.370;2023-07-20T09:28:50;8.32;;;3.20;;
24873;SDS011;12945;42.648;23.370;2023-07-20T09:33:42;14.13;;;3.60;;
24873;SDS011;12945;42.648;23.370;2023-07-20T09:36:09;11.80;;;3.13;;
24873;SDS011;12945;42.648;23.370;2023-07-20T09:38:36;11.90;;;3.47;;
24873;SDS011;12945;42.648;23.370;2023-07-20T09:41:01;12.43;;;3.88;;
24873;SDS011;12945;42.648;23.370;2023-07-20T09:43:28;11.88;;;3.22;;
24873;SDS011;12945;42.648;23.370;2023-07-20T09:45:58;11.23;;;3.00;;
24873;SDS011;12945;42.648;23.370;2023-07-20T09:48:24;17.70;;;3.67;;
24873;SDS011;12945;42.648;23.370;2023-07-20T09:50:50;11.85;;;3.28;;
24873;SDS011;12945;42.648;23.370;2023-07-20T09:53:16;15.75;;;3.45;;
24873;SDS011;12945;42.648;23.370;2023-07-20T09:55:43;12.25;;;3.10;;
24873;SDS011;12945;42.648;23.370;2023-07-20T09:58:09;10.70;;;3.03;;
24873;SDS011;12945;42.648;23.370;2023-07-20T10:00:38;12.45;;;3.50;;
24873;SDS011;12945;42.648;23.370;2023-07-20T10:03:04;10.50;;;3.08;;
24873;SDS011;12945;42.648;23.370;2023-07-20T10:05:31;10.90;;;3.65;;
24873;SDS011;12945;42.648;23.370;2023-07-20T10:07:58;9.13;;;2.95;;
24873;SDS011;12945;42.648;23.370;2023-07-20T10:10:24;11.50;;;3.40;;
24873;SDS011;12945;42.648;23.370;2023-07-20T10:12:50;14.68;;;3.55;;
24873;SDS011;12945;42.648;23.370;2023-07-20T10:15:25;7.30;;;2.97;;
24873;SDS011;12945;42.648;23.370;2023-07-20T10:18:09;15.20;;;3.65;;
24873;SDS011;12945;42.648;23.370;2023-07-20T10:20:36;13.10;;;3.00;;
24873;SDS011;12945;42.648;23.370;2023-07-20T10:23:03;9.68;;;3.13;;
24873;SDS011;12945;42.648;23.370;2023-07-20T10:25:29;14.95;;;3.50;;
24873;SDS011;12945;42.648;23.370;2023-07-20T10:27:54;12.45;;;3.00;;
24873;SDS011;12945;42.648;23.370;2023-07-20T10:30:20;9.00;;;3.13;;
24873;SDS011;12945;42.648;23.370;2023-07-20T10:32:45;11.75;;;3.13;;
24873;SDS011;12945;42.648;23.370;2023-07-20T10:35:12;11.38;;;3.13;;
24873;SDS011;12945;42.648;23.370;2023-07-20T10:37:48;12.88;;;2.95;;
24873;SDS011;12945;42.648;23.370;2023-07-20T10:40:27;16.63;;;3.70;;
24873;SDS011;12945;42.648;23.370;2023-07-20T10:42:56;11.40;;;2.95;;
24873;SDS011;12945;42.648;23.370;2023-07-20T10:45:32;11.48;;;3.33;;
24873;SDS011;12945;42.648;23.370;2023-07-20T10:47:57;9.77;;;3.10;;
24873;SDS011;12945;42.648;23.370;2023-07-20T10:50:23;13.73;;;3.60;;
24873;SDS011;12945;42.648;23.370;2023-07-20T10:53:03;9.88;;;3.20;;
24873;SDS011;12945;42.648;23.370;2023-07-20T10:55:29;12.40;;;2.90;;
24873;SDS011;12945;42.648;23.370;2023-07-20T10:58:09;9.52;;;3.20;;
24873;SDS011;12945;42.648;23.370;2023-07-20T11:00:35;9.98;;;2.92;;
24873;SDS011;12945;42.648;23.370;2023-07-20T11:03:00;14.48;;;3.20;;
24873;SDS011;12945;42.648;23.370;2023-07-20T11:05:35;14.57;;;3.63;;
24873;SDS011;12945;42.648;23.370;2023-07-20T11:08:04;9.23;;;2.83;;
24873;SDS011;12945;42.648;23.370;2023-07-20T11:10:30;12.65;;;3.20;;
24873;SDS011;12945;42.648;23.370;2023-07-20T11:15:46;12.90;;;3.40;;
24873;SDS011;12945;42.648;23.370;2023-07-20T11:18:12;9.48;;;2.90;;
24873;SDS011;12945;42.648;23.370;2023-07-20T11:20:37;11.55;;;3.25;;
24873;SDS011;12945;42.648;23.370;2023-07-20T11:23:03;12.13;;;3.15;;
24873;SDS011;12945;42.648;23.370;2023-07-20T11:25:35;12.10;;;3.67;;
24873;SDS011;12945;42.648;23.370;2023-07-20T11:28:01;11.35;;;3.67;;
24873;SDS011;12945;42.648;23.370;2023-07-20T11:30:26;18.90;;;3.57;;
24873;SDS011;12945;42.648;23.370;2023-07-20T11:32:51;13.45;;;4.10;;
24873;SDS011;12945;42.648;23.370;2023-07-20T11:35:17;9.57;;;3.87;;
24873;SDS011;12945;42.648;23.370;2023-07-20T11:37:42;14.35;;;4.22;;
24873;SDS011;12945;42.648;23.370;2023-07-20T11:40:08;7.70;;;4.40;;
24873;SDS011;12945;42.648;23.370;2023-07-20T11:42:34;16.92;;;5.60;;
24873;SDS011;12945;42.648;23.370;2023-07-20T11:45:01;10.75;;;4.68;;
24873;SDS011;12945;42.648;23.370;2023-07-20T11:47:29;14.43;;;4.38;;
24873;SDS011;12945;42.648;23.370;2023-07-20T11:49:54;11.00;;;4.47;;
24873;SDS011;12945;42.648;23.370;2023-07-20T11:52:19;13.37;;;4.87;;
24873;SDS011;12945;42.648;23.370;2023-07-20T11:54:45;15.27;;;4.45;;
24873;SDS011;12945;42.648;23.370;2023-07-20T11:57:16;13.70;;;4.82;;
24873;SDS011;12945;42.648;23.370;2023-07-20T11:59:52;8.17;;;4.30;;
24873;SDS011;12945;42.648;23.370;2023-07-20T12:02:17;15.38;;;4.22;;
24873;SDS011;12945;42.648;23.370;2023-07-20T12:04:42;12.45;;;4.65;;
24873;SDS011;12945;42.648;23.370;2023-07-20T12:07:08;12.55;;;4.45;;
24873;SDS011;12945;42.648;23.370;2023-07-20T12:09:33;13.33;;;4.00;;
24873;SDS011;12945;42.648;23.370;2023-07-20T12:11:58;12.00;;;4.07;;
24873;SDS011;12945;42.648;23.370;2023-07-20T12:14:25;12.57;;;4.22;;
24873;SDS011;12945;42.648;23.370;2023-07-20T12:16:53;20.63;;;4.20;;
24873;SDS011;12945;42.648;23.370;2023-07-20T12:19:24;12.13;;;4.22;;
24873;SDS011;12945;42.648;23.370;2023-07-20T12:21:50;11.65;;;4.80;;
24873;SDS011;12945;42.648;23.370;2023-07-20T12:24:15;13.43;;;4.25;;
24873;SDS011;12945;42.648;23.370;2023-07-20T12:26:42;9.27;;;3.85;;
24873;SDS011;12945;42.648;23.370;2023-07-20T12:29:08;10.85;;;3.83;;
24873;SDS011;12945;42.648;23.370;2023-07-20T12:31:33;13.27;;;3.85;;
24873;SDS011;12945;42.648;23.370;2023-07-20T12:33:59;14.85;;;3.85;;
24873;SDS011;12945;42.648;23.370;2023-07-20T12:36:24;11.55;;;3.78;;
24873;SDS011;12945;42.648;23.370;2023-07-20T12:38:49;6.60;;;3.00;;
24873;SDS011;12945;42.648;23.370;2023-07-20T12:41:16;22.55;;;4.22;;
24873;SDS011;12945;42.648;23.370;2023-07-20T12:43:42;8.63;;;2.78;;
24873;SDS011;12945;42.648;23.370;2023-07-20T12:46:08;9.25;;;3.08;;
24873;SDS011;12945;42.648;23.370;2023-07-20T12:48:35;15.65;;;3.60;;
24873;SDS011;12945;42.648;23.370;2023-07-20T12:51:02;9.50;;;3.53;;
24873;SDS011;12945;42.648;23.370;2023-07-20T12:53:28;8.98;;;3.28;;
24873;SDS011;12945;42.648;23.370;2023-07-20T12:55:53;16.10;;;3.47;;
24873;SDS011;12945;42.648;23.370;2023-07-20T12:58:19;11.23;;;3.45;;
24873;SDS011;12945;42.648;23.370;2023-07-20T13:00:44;10.43;;;3.87;;
24873;SDS011;12945;42.648;23.370;2023-07-20T13:03:09;10.98;;;3.30;;
24873;SDS011;12945;42.648;23.370;2023-07-20T13:05:35;11.15;;;3.88;;
24873;SDS011;12945;42.648;23.370;2023-07-20T13:08:00;10.65;;;3.30;;
24873;SDS011;12945;42.648;23.370;2023-07-20T13:10:26;9.48;;;3.00;;
24873;SDS011;12945;42.648;23.370;2023-07-20T13:12:51;10.00;;;3.20;;
24873;SDS011;12945;42.648;23.370;2023-07-20T13:15:17;10.33;;;3.70;;
24873;SDS011;12945;42.648;23.370;2023-07-20T13:17:42;12.38;;;3.65;;
24873;SDS011;12945;42.648;23.370;2023-07-20T13:20:08;11.73;;;3.35;;
24873;SDS011;12945;42.648;23.370;2023-07-20T13:22:36;11.32;;;3.38;;
24873;SDS011;12945;42.648;23.370;2023-07-20T13:25:02;8.75;;;3.30;;
24873;SDS011;12945;42.648;23.370;2023-07-20T13:27:29;9.48;;;3.45;;
24873;SDS011;12945;42.648;23.370;2023-07-20T13:29:58;11.57;;;2.97;;
24873;SDS011;12945;42.648;23.370;2023-07-20T13:32:23;11.35;;;3.13;;
24873;SDS011;12945;42.648;23.370;2023-07-20T13:34:48;11.88;;;3.40;;
24873;SDS011;12945;42.648;23.370;2023-07-20T13:37:14;9.70;;;3.20;;
24873;SDS011;12945;42.648;23.370;2023-07-20T13:39:39;9.30;;;3.35;;
24873;SDS011;12945;42.648;23.370;2023-07-20T13:42:05;14.20;;;3.45;;
24873;SDS011;12945;42.648;23.370;2023-07-20T13:44:33;13.25;;;3.72;;
24873;SDS011;12945;42.648;23.370;2023-07-20T13:47:00;8.70;;;3.10;;
24873;SDS011;12945;42.648;23.370;2023-07-20T13:49:25;15.20;;;3.22;;
24873;SDS011;12945;42.648;23.370;2023-07-20T13:51:50;8.77;;;2.92;;
24873;SDS011;12945;42.648;23.370;2023-07-20T13:54:16;12.30;;;3.03;;
24873;SDS011;12945;42.648;23.370;2023-07-20T13:56:41;15.23;;;3.70;;
24873;SDS011;12945;42.648;23.370;2023-07-20T13:59:06;14.10;;;3.42;;
24873;SDS011;12945;42.648;23.370;2023-07-20T14:01:32;11.80;;;3.05;;
24873;SDS011;12945;42.648;23.370;2023-07-20T14:03:59;18.60;;;3.63;;
24873;SDS011;12945;42.648;23.370;2023-07-20T14:06:24;15.32;;;3.35;;
24873;SDS011;12945;42.648;23.370;2023-07-20T14:08:50;9.77;;;3.30;;
24873;SDS011;12945;42.648;23.370;2023-07-20T14:11:15;12.57;;;3.00;;
24873;SDS011;12945;42.648;23.370;2023-07-20T14:13:40;14.93;;;3.63;;
24873;SDS011;12945;42.648;23.370;2023-07-20T14:16:06;16.30;;;3.20;;
24873;SDS011;12945;42.648;23.370;2023-07-20T14:18:32;12.80;;;3.33;;
24873;SDS011;12945;42.648;23.370;2023-07-20T14:20:57;6.83;;;2.80;;
24873;SDS011;12945;42.648;23.370;2023-07-20T14:23:23;14.25;;;3.38;;
24873;SDS011;12945;42.648;23.370;2023-07-20T14:25:48;15.27;;;3.90;;
24873;SDS011;12945;42.648;23.370;2023-07-20T14:28:14;10.40;;;2.65;;
24873;SDS011;12945;42.648;23.370;2023-07-20T14:30:39;12.82;;;3.00;;